Time;durP1;ratioP1;P1;durP2;ratioP2;P2;SDS_P1;SDS_P2;PMS_P1;PMS_P2;Temp;Humidity;BMP_temperature;BMP_pressure;BME280_temperature;BME280_humidity;BME280_pressure;Samples;Min_cycle;Max_cycle;Signal;HPM_P1;HPM_P2
2021/10/12 00:01:05;;;;;;;;;;;;;;;;;;5031550;28;20361;-75
2021/10/12 00:03:30;;;;;;;;;;;;;;;;;;5030753;28;19959;-75
2021/10/12 00:05:56;;;;;;;;;;;;;;;;;;5031988;28;20384;-75
2021/10/12 00:08:21;;;;;;;;;;;;;;;;;;5031763;28;20375;-75
2021/10/12 00:10:46;;;;;;;;;;;;;;;;;;5030369;28;19963;-75
2021/10/12 00:13:12;;;;;;;;;;;;;;;;;;5031911;28;19931;-74
2021/10/12 00:15:37;;;;;;;;;;;;;;;;;;5035239;28;19992;-75
2021/10/12 00:18:02;;;;;;;;;;;;;;;;;;5035219;28;20008;-75
2021/10/12 00:20:27;;;;;;;;;;;;;;;;;;5035939;28;19917;-76
2021/10/12 00:22:53;;;;;;;;;;;;;;;;;;5034891;28;20497;-75
2021/10/12 00:25:18;;;;;;;;;;;;;;;;;;5033783;28;19909;-75
2021/10/12 00:27:43;;;;;;;;;;;;;;;;;;5035365;28;19975;-75
2021/10/12 00:30:09;;;;;;;;;;;;;;;;;;5035717;28;19916;-75
2021/10/12 00:32:34;;;;;;;;;;;;;;;;;;5035247;28;20366;-75
2021/10/12 00:34:59;;;;;;;;;;;;;;;;;;5033815;28;19995;-75
2021/10/12 00:37:24;;;;;;;;;;;;;;;;;;5035069;28;20370;-75
2021/10/12 00:39:50;;;;;;;;;;;;;;;;;;5035146;28;19959;-75
2021/10/12 00:42:15;;;;;;;;;;;;;;;;;;5034750;28;19913;-74
2021/10/12 00:44:40;;;;;;;;;;;;;;;;;;5035136;28;20358;-74
2021/10/12 00:47:05;;;;;;;;;;;;;;;;;;5034878;28;19928;-74
2021/10/12 00:49:31;;;;;;;;;;;;;;;;;;5035346;28;19909;-75
2021/10/12 00:51:56;;;;;;;;;;;;;;;;;;5034837;28;20236;-75
2021/10/12 00:54:21;;;;;;;;;;;;;;;;;;5035144;28;19962;-75
2021/10/12 00:56:46;;;;;;;;;;;;;;;;;;5034464;28;19912;-75
2021/10/12 00:59:12;;;;;;;;;;;;;;;;;;5033419;28;19919;-74
2021/10/12 01:01:37;;;;;;;;;;;;;;;;;;5034611;28;19917;-75
2021/10/12 01:04:02;;;;;;;;;;;;;;;;;;5034532;28;19913;-75
2021/10/12 01:06:28;;;;;;;;;;;;;;;;;;5034690;28;20011;-75
2021/10/12 01:08:53;;;;;;;;;;;;;;;;;;5035425;28;19909;-75
2021/10/12 01:11:18;;;;;;;;;;;;;;;;;;5034878;28;20008;-76
2021/10/12 01:13:43;;;;;;;;;;;;;;;;;;5034905;28;20003;-75
2021/10/12 01:16:09;;;;;;;;;;;;;;;;;;5034835;28;19909;-76
2021/10/12 01:18:36;;;;;;;;;;;;;;;;;;5034128;28;19913;-75
2021/10/12 01:21:01;;;;;;;;;;;;;;;;;;5034696;28;20303;-75
2021/10/12 01:23:26;;;;;;;;;;;;;;;;;;5034265;28;19909;-75
2021/10/12 01:25:51;;;;;;;;;;;;;;;;;;5033777;28;19966;-74
2021/10/12 01:28:17;;;;;;;;;;;;;;;;;;5034579;28;19909;-74
2021/10/12 01:30:42;;;;;;;;;;;;;;;;;;5032793;28;20445;-74
2021/10/12 01:33:07;;;;;;;;;;;;;;;;;;5032594;28;20367;-74
2021/10/12 01:35:33;;;;;;;;;;;;;;;;;;5034318;28;19913;-75
2021/10/12 01:37:58;;;;;;;;;;;;;;;;;;5033718;28;20295;-75
2021/10/12 01:40:23;;;;;;;;;;;;;;;;;;5034207;28;19924;-75
2021/10/12 01:42:48;;;;;;;;;;;;;;;;;;5033935;28;20406;-75
2021/10/12 01:45:14;;;;;;;;;;;;;;;;;;5033875;28;19908;-75
2021/10/12 01:47:39;;;;;;;;;;;;;;;;;;5034409;28;19916;-75
2021/10/12 01:50:04;;;;;;;;;;;;;;;;;;5033896;28;20048;-75
2021/10/12 01:52:29;;;;;;;;;;;;;;;;;;5032610;28;19921;-75
2021/10/12 01:54:55;;;;;;;;;;;;;;;;;;5033822;28;19909;-74
2021/10/12 01:57:20;;;;;;;;;;;;;;;;;;5032618;28;20015;-75
2021/10/12 01:59:45;;;;;;;;;;;;;;;;;;5033718;28;19909;-75
2021/10/12 02:02:11;;;;;;;;;;;;;;;;;;5034087;28;19963;-75
2021/10/12 02:04:36;;;;;;;;;;;;;;;;;;5033334;28;19920;-75
2021/10/12 02:07:01;;;;;;;;;;;;;;;;;;5033464;28;19909;-76
2021/10/12 02:09:26;;;;;;;;;;;;;;;;;;5034086;28;20004;-76
2021/10/12 02:11:52;;;;;;;;;;;;;;;;;;5033392;28;19909;-76
2021/10/12 02:14:17;;;;;;;;;;;;;;;;;;5033651;28;20367;-75
2021/10/12 02:16:42;;;;;;;;;;;;;;;;;;5033114;28;19917;-76
2021/10/12 02:19:07;;;;;;;;;;;;;;;;;;5033865;28;19943;-77
2021/10/12 02:21:33;;;;;;;;;;;;;;;;;;5033234;28;19953;-76
2021/10/12 02:23:58;;;;;;;;;;;;;;;;;;5033594;28;20015;-75
2021/10/12 02:26:23;;;;;;;;;;;;;;;;;;5031671;28;19921;-74
2021/10/12 02:28:48;;;;;;;;;;;;;;;;;;5033680;28;20003;-74
2021/10/12 02:31:14;;;;;;;;;;;;;;;;;;5032912;28;20299;-76
2021/10/12 02:33:39;;;;;;;;;;;;;;;;;;5033423;28;19954;-75
2021/10/12 02:36:04;;;;;;;;;;;;;;;;;;5032999;28;20004;-76
2021/10/12 02:38:29;;;;;;;;;;;;;;;;;;5032349;28;19931;-76
2021/10/12 02:40:55;;;;;;;;;;;;;;;;;;5033038;28;19913;-77
2021/10/12 02:43:20;;;;;;;;;;;;;;;;;;5032607;28;20390;-77
2021/10/12 02:45:46;;;;;;;;;;;;;;;;;;5033118;28;20264;-76
2021/10/12 02:48:11;;;;;;;;;;;;;;;;;;5032712;28;19952;-76
2021/10/12 02:50:36;;;;;;;;;;;;;;;;;;5024741;28;19925;-76
2021/10/12 02:53:01;;;;;;;;;;;;;;;;;;5013469;28;19955;-74
2021/10/12 02:55:27;;;;;;;;;;;;;;;;;;5012938;28;19909;-75
2021/10/12 02:57:52;;;;;;;;;;;;;;;;;;5013003;28;19913;-75
2021/10/12 03:00:17;;;;;;;;;;;;;;;;;;5013249;28;20325;-75
2021/10/12 03:02:43;;;;;;;;;;;;;;;;;;5012951;28;20367;-75
2021/10/12 03:05:08;;;;;;;;;;;;;;;;;;5012748;28;19916;-75
2021/10/12 03:07:33;;;;;;;;;;;;;;;;;;5023346;28;19940;-75
2021/10/12 03:09:58;;;;;;;;;;;;;;;;;;5032758;28;20007;-75
2021/10/12 03:12:24;;;;;;;;;;;;;;;;;;5032480;28;19909;-75
2021/10/12 03:14:49;;;;;;;;;;;;;;;;;;5032382;28;19909;-76
2021/10/12 03:17:14;;;;;;;;;;;;;;;;;;5032708;28;19909;-75
2021/10/12 03:19:39;;;;;;;;;;;;;;;;;;5032732;28;19916;-74
2021/10/12 03:22:13;;;;;;;;;;;;;;;;;;5032397;28;19947;-76
2021/10/12 03:24:38;;;;;;;;;;;;;;;;;;5032359;28;19935;-76
2021/10/12 03:27:04;;;;;;;;;;;;;;;;;;5032038;28;20012;-76
2021/10/12 03:29:29;;;;;;;;;;;;;;;;;;5032323;28;20295;-76
2021/10/12 03:31:54;;;;;;;;;;;;;;;;;;5032078;28;19963;-76
2021/10/12 03:34:20;;;;;;;;;;;;;;;;;;5032389;28;19913;-74
2021/10/12 03:36:45;;;;;;;;;;;;;;;;;;5031914;28;19975;-76
2021/10/12 03:39:10;;;;;;;;;;;;;;;;;;5032518;28;19917;-77
2021/10/12 03:41:35;;;;;;;;;;;;;;;;;;5032190;28;20372;-76
2021/10/12 03:44:01;;;;;;;;;;;;;;;;;;5032972;28;19916;-75
2021/10/12 03:46:26;;;;;;;;;;;;;;;;;;5032065;28;20382;-76
2021/10/12 03:48:51;;;;;;;;;;;;;;;;;;5033154;28;19909;-75
2021/10/12 03:51:16;;;;;;;;;;;;;;;;;;5036097;28;19917;-75
2021/10/12 03:53:42;;;;;;;;;;;;;;;;;;5035896;28;19913;-76
2021/10/12 03:56:07;;;;;;;;;;;;;;;;;;5035926;28;19909;-75
2021/10/12 03:58:32;;;;;;;;;;;;;;;;;;5035876;28;20383;-75
2021/10/12 04:00:57;;;;;;;;;;;;;;;;;;5036074;28;20055;-74
2021/10/12 04:03:23;;;;;;;;;;;;;;;;;;5036210;28;19929;-74
2021/10/12 04:05:48;;;;;;;;;;;;;;;;;;5036055;28;19963;-74
2021/10/12 04:08:13;;;;;;;;;;;;;;;;;;5036469;28;20000;-75
2021/10/12 04:10:38;;;;;;;;;;;;;;;;;;5038402;28;19924;-74
2021/10/12 04:13:05;;;;;;;;;;;;;;;;;;5041039;28;19909;-75
2021/10/12 04:15:30;;;;;;;;;;;;;;;;;;5036772;28;19916;-76
2021/10/12 04:17:55;;;;;;;;;;;;;;;;;;5034664;28;19909;-75
2021/10/12 04:20:24;;;;;;;;;;;;;;;;;;5036026;28;19913;-76
2021/10/12 04:22:49;;;;;;;;;;;;;;;;;;5035469;28;19916;-76
2021/10/12 04:25:15;;;;;;;;;;;;;;;;;;5035315;28;19909;-76
2021/10/12 04:27:40;;;;;;;;;;;;;;;;;;5034302;28;19975;-76
2021/10/12 04:30:05;;;;;;;;;;;;;;;;;;5036055;28;20011;-75
2021/10/12 04:32:31;;;;;;;;;;;;;;;;;;5033686;28;19909;-75
2021/10/12 04:34:56;;;;;;;;;;;;;;;;;;5033241;28;20341;-76
2021/10/12 04:37:21;;;;;;;;;;;;;;;;;;5033288;28;19913;-76
2021/10/12 04:39:46;;;;;;;;;;;;;;;;;;5035838;28;19913;-76
2021/10/12 04:42:12;;;;;;;;;;;;;;;;;;5033876;28;20258;-75
2021/10/12 04:44:37;;;;;;;;;;;;;;;;;;5035483;28;19915;-75
2021/10/12 04:47:02;;;;;;;;;;;;;;;;;;5033682;28;20452;-76
2021/10/12 04:49:27;;;;;;;;;;;;;;;;;;5034715;28;19913;-76
2021/10/12 04:51:53;;;;;;;;;;;;;;;;;;5033705;28;20319;-76
2021/10/12 04:54:18;;;;;;;;;;;;;;;;;;5034795;28;19909;-76
2021/10/12 04:56:43;;;;;;;;;;;;;;;;;;5034495;28;19949;-76
2021/10/12 04:59:08;;;;;;;;;;;;;;;;;;5033455;28;19955;-76
2021/10/12 05:01:34;;;;;;;;;;;;;;;;;;5033663;28;19916;-76
2021/10/12 05:03:59;;;;;;;;;;;;;;;;;;5034449;28;20369;-76
2021/10/12 05:06:24;;;;;;;;;;;;;;;;;;5034647;28;20359;-76
2021/10/12 05:08:50;;;;;;;;;;;;;;;;;;5035314;28;19920;-76
2021/10/12 05:11:15;;;;;;;;;;;;;;;;;;5033903;28;19921;-76
2021/10/12 05:13:40;;;;;;;;;;;;;;;;;;5034020;28;19995;-76
2021/10/12 05:16:11;;;;;;;;;;;;;;;;;;5034179;28;19909;-76
2021/10/12 05:18:38;;;;;;;;;;;;;;;;;;5034759;28;19915;-76
2021/10/12 05:21:03;;;;;;;;;;;;;;;;;;5034304;28;20003;-77
2021/10/12 05:23:29;;;;;;;;;;;;;;;;;;5035081;28;19947;-77
2021/10/12 05:25:54;;;;;;;;;;;;;;;;;;5034300;28;19931;-78
2021/10/12 05:28:20;;;;;;;;;;;;;;;;;;5034622;28;19908;-77
2021/10/12 05:30:45;;;;;;;;;;;;;;;;;;5032830;28;19928;-76
2021/10/12 05:33:10;;;;;;;;;;;;;;;;;;5034883;28;19974;-77
2021/10/12 05:35:35;;;;;;;;;;;;;;;;;;5033572;28;20059;-76
2021/10/12 05:38:01;;;;;;;;;;;;;;;;;;5033542;28;19913;-76
2021/10/12 05:40:26;;;;;;;;;;;;;;;;;;5033750;28;19909;-76
2021/10/12 05:42:51;;;;;;;;;;;;;;;;;;5033814;28;19909;-76
2021/10/12 05:45:17;;;;;;;;;;;;;;;;;;5033828;28;19909;-76
2021/10/12 05:47:42;;;;;;;;;;;;;;;;;;5033764;28;19912;-76
2021/10/12 05:50:07;;;;;;;;;;;;;;;;;;5027608;28;19913;-76
2021/10/12 05:52:35;;;;;;;;;;;;;;;;;;5033437;28;19917;-76
2021/10/12 05:55:10;;;;;;;;;;;;;;;;;;5033878;28;20016;-75
2021/10/12 05:57:41;;;;;;;;;;;;;;;;;;5032196;28;19909;-75
2021/10/12 06:00:06;;;;;;;;;;;;;;;;;;5034140;28;19908;-76
2021/10/12 06:02:31;;;;;;;;;;;;;;;;;;5034203;28;19915;-75
2021/10/12 06:04:56;;;;;;;;;;;;;;;;;;5033729;28;19909;-75
2021/10/12 06:07:22;;;;;;;;;;;;;;;;;;5033635;28;19909;-75
2021/10/12 06:09:47;;;;;;;;;;;;;;;;;;5033904;28;19954;-76
2021/10/12 06:12:12;;;;;;;;;;;;;;;;;;5032699;28;19924;-75
2021/10/12 06:14:37;;;;;;;;;;;;;;;;;;5034125;28;19916;-75
2021/10/12 06:17:03;;;;;;;;;;;;;;;;;;5033018;28;19991;-75
2021/10/12 06:19:28;;;;;;;;;;;;;;;;;;5031967;28;19912;-75
2021/10/12 06:21:53;;;;;;;;;;;;;;;;;;5033218;28;19909;-75
2021/10/12 06:24:18;;;;;;;;;;;;;;;;;;5032419;28;19975;-74
2021/10/12 06:26:44;;;;;;;;;;;;;;;;;;5032909;28;20279;-74
2021/10/12 06:29:09;;;;;;;;;;;;;;;;;;5033652;28;20235;-76
2021/10/12 06:31:34;;;;;;;;;;;;;;;;;;5032840;28;19917;-75
2021/10/12 06:34:00;;;;;;;;;;;;;;;;;;5033179;28;19909;-74
2021/10/12 06:36:25;;;;;;;;;;;;;;;;;;5032963;28;19908;-74
2021/10/12 06:38:50;;;;;;;;;;;;;;;;;;5032770;28;19917;-74
2021/10/12 06:41:15;;;;;;;;;;;;;;;;;;5032587;28;20003;-76
2021/10/12 06:43:41;;;;;;;;;;;;;;;;;;5032592;28;19913;-74
2021/10/12 06:46:06;;;;;;;;;;;;;;;;;;5033143;28;19952;-74
2021/10/12 06:48:32;;;;;;;;;;;;;;;;;;5032525;28;20355;-74
2021/10/12 06:50:57;;;;;;;;;;;;;;;;;;5032809;28;19917;-75
2021/10/12 06:53:23;;;;;;;;;;;;;;;;;;5032462;28;19913;-74
2021/10/12 06:55:48;;;;;;;;;;;;;;;;;;5032482;28;19912;-75
2021/10/12 06:58:13;;;;;;;;;;;;;;;;;;5032420;28;19939;-75
2021/10/12 07:00:39;;;;;;;;;;;;;;;;;;5032268;28;19935;-75
2021/10/12 07:03:04;;;;;;;;;;;;;;;;;;5032349;28;19971;-76
2021/10/12 07:05:29;;;;;;;;;;;;;;;;;;5032875;28;19913;-75
2021/10/12 07:07:55;;;;;;;;;;;;;;;;;;5027524;28;19920;-75
2021/10/12 07:10:21;;;;;;;;;;;;;;;;;;5031153;28;20305;-75
2021/10/12 07:12:46;;;;;;;;;;;;;;;;;;5032422;28;19924;-76
2021/10/12 07:15:11;;;;;;;;;;;;;;;;;;5032544;28;19909;-75
2021/10/12 07:17:38;;;;;;;;;;;;;;;;;;5026117;28;19919;-76
2021/10/12 07:20:03;;;;;;;;;;;;;;;;;;5030642;28;19913;-75
2021/10/12 07:22:29;;;;;;;;;;;;;;;;;;5031732;28;19919;-76
2021/10/12 07:24:54;;;;;;;;;;;;;;;;;;5031737;28;19955;-75
2021/10/12 07:27:19;;;;;;;;;;;;;;;;;;5015271;28;20412;-75
2021/10/12 07:29:50;;;;;;;;;;;;;;;;;;5012557;28;20432;-75
2021/10/12 07:32:15;;;;;;;;;;;;;;;;;;5012029;28;19924;-74
2021/10/12 07:34:40;;;;;;;;;;;;;;;;;;5012664;28;19909;-77
2021/10/12 07:37:05;;;;;;;;;;;;;;;;;;5011780;28;19909;-75
2021/10/12 07:39:31;;;;;;;;;;;;;;;;;;5012260;28;19916;-76
2021/10/12 07:41:56;;;;;;;;;;;;;;;;;;5012180;28;19932;-76
2021/10/12 07:44:21;;;;;;;;;;;;;;;;;;5010815;28;19909;-76
2021/10/12 07:46:47;;;;;;;;;;;;;;;;;;5023038;28;19920;-75
2021/10/12 07:49:12;;;;;;;;;;;;;;;;;;5031997;28;19999;-75
2021/10/12 07:51:37;;;;;;;;;;;;;;;;;;5031864;28;20033;-76
2021/10/12 07:54:08;;;;;;;;;;;;;;;;;;5032424;28;20371;-76
2021/10/12 07:56:36;;;;;;;;;;;;;;;;;;5031220;28;19967;-77
2021/10/12 07:59:01;;;;;;;;;;;;;;;;;;5031949;28;19909;-76
2021/10/12 08:01:27;;;;;;;;;;;;;;;;;;5030717;28;20027;-75
2021/10/12 08:03:52;;;;;;;;;;;;;;;;;;5031112;28;19909;-74
2021/10/12 08:06:17;;;;;;;;;;;;;;;;;;5031187;28;19967;-75
2021/10/12 08:08:43;;;;;;;;;;;;;;;;;;5032127;28;19960;-76
2021/10/12 08:11:08;;;;;;;;;;;;;;;;;;5031871;28;20387;-77
2021/10/12 08:13:35;;;;;;;;;;;;;;;;;;5026824;28;19914;-77
2021/10/12 08:16:08;;;;;;;;;;;;;;;;;;5011916;28;20326;-75
2021/10/12 08:18:33;;;;;;;;;;;;;;;;;;5025408;28;19921;-75
2021/10/12 08:20:58;;;;;;;;;;;;;;;;;;5030918;28;20268;-75
2021/10/12 08:23:23;;;;;;;;;;;;;;;;;;5031341;28;19909;-76
2021/10/12 08:25:49;;;;;;;;;;;;;;;;;;5030406;28;20371;-76
2021/10/12 08:28:14;;;;;;;;;;;;;;;;;;5020410;28;19917;-76
2021/10/12 08:30:39;;;;;;;;;;;;;;;;;;5011534;28;20368;-76
2021/10/12 08:33:04;;;;;;;;;;;;;;;;;;5012237;28;19915;-75
2021/10/12 08:35:30;;;;;;;;;;;;;;;;;;5012000;28;20356;-76
2021/10/12 08:37:55;;;;;;;;;;;;;;;;;;5015281;28;19909;-77
2021/10/12 08:40:20;;;;;;;;;;;;;;;;;;5025891;28;19909;-76
2021/10/12 08:42:46;;;;;;;;;;;;;;;;;;5035039;28;20366;-75
2021/10/12 08:45:12;;;;;;;;;;;;;;;;;;5031219;28;19920;-76
2021/10/12 08:47:38;;;;;;;;;;;;;;;;;;5031265;28;20375;-76
2021/10/12 08:50:03;;;;;;;;;;;;;;;;;;5027557;28;19925;-78
2021/10/12 08:52:28;;;;;;;;;;;;;;;;;;5032988;28;19913;-77
2021/10/12 08:54:53;;;;;;;;;;;;;;;;;;5020417;28;20411;-77
2021/10/12 08:57:19;;;;;;;;;;;;;;;;;;5018096;28;19908;-76
2021/10/12 08:59:44;;;;;;;;;;;;;;;;;;5034943;28;20011;-77
2021/10/12 09:02:13;;;;;;;;;;;;;;;;;;5035478;28;19916;-77
2021/10/12 09:04:38;;;;;;;;;;;;;;;;;;5035064;28;19909;-77
2021/10/12 09:07:03;;;;;;;;;;;;;;;;;;5034920;28;20382;-78
2021/10/12 09:09:29;;;;;;;;;;;;;;;;;;5015196;28;19940;-78
2021/10/12 09:11:54;;;;;;;;;;;;;;;;;;5021746;28;19920;-77
2021/10/12 09:14:19;;;;;;;;;;;;;;;;;;5034950;28;19909;-77
2021/10/12 09:16:45;;;;;;;;;;;;;;;;;;5034146;28;19924;-77
2021/10/12 09:19:10;;;;;;;;;;;;;;;;;;5034581;28;20003;-78
2021/10/12 09:21:35;;;;;;;;;;;;;;;;;;5034758;28;19945;-78
2021/10/12 09:24:01;;;;;;;;;;;;;;;;;;5034989;28;20356;-77
2021/10/12 09:26:27;;;;;;;;;;;;;;;;;;5036026;28;19947;-78
2021/10/12 09:28:52;;;;;;;;;;;;;;;;;;5037577;28;20375;-77
2021/10/12 09:31:17;;;;;;;;;;;;;;;;;;5034464;28;20426;-77
2021/10/12 09:33:43;;;;;;;;;;;;;;;;;;5034083;28;19951;-77
2021/10/12 09:36:08;;;;;;;;;;;;;;;;;;5035543;28;19948;-77
2021/10/12 09:38:33;;;;;;;;;;;;;;;;;;5034853;28;20046;-76
2021/10/12 09:40:58;;;;;;;;;;;;;;;;;;5034320;28;19931;-77
2021/10/12 09:43:24;;;;;;;;;;;;;;;;;;5038866;28;19913;-77
2021/10/12 09:45:49;;;;;;;;;;;;;;;;;;5040596;28;20237;-77
2021/10/12 09:48:14;;;;;;;;;;;;;;;;;;5034698;28;19955;-77
2021/10/12 09:50:40;;;;;;;;;;;;;;;;;;5034250;28;19921;-77
2021/10/12 09:53:05;;;;;;;;;;;;;;;;;;5033727;28;19912;-77
2021/10/12 09:55:31;;;;;;;;;;;;;;;;;;5033664;28;20394;-77
2021/10/12 09:57:56;;;;;;;;;;;;;;;;;;5017079;28;19920;-78
2021/10/12 10:00:21;;;;;;;;;;;;;;;;;;5025347;28;20398;-76
2021/10/12 10:02:46;;;;;;;;;;;;;;;;;;5034201;28;19909;-77
2021/10/12 10:05:12;;;;;;;;;;;;;;;;;;5024558;28;20315;-75
2021/10/12 10:07:37;;;;;;;;;;;;;;;;;;5014329;28;19909;-76
2021/10/12 10:10:04;;;;;;;;;;;;;;;;;;5013435;28;20069;-76
2021/10/12 10:12:29;;;;;;;;;;;;;;;;;;5014062;28;19925;-76
2021/10/12 10:14:54;;;;;;;;;;;;;;;;;;5014691;28;20244;-77
2021/10/12 10:17:19;;;;;;;;;;;;;;;;;;5021645;28;20051;-77
2021/10/12 10:19:45;;;;;;;;;;;;;;;;;;5033566;28;19967;-77
2021/10/12 10:22:10;;;;;;;;;;;;;;;;;;5033534;28;19909;-76
2021/10/12 10:24:35;;;;;;;;;;;;;;;;;;5033258;28;19909;-77
2021/10/12 10:27:01;;;;;;;;;;;;;;;;;;5032995;28;19920;-77
2021/10/12 10:29:27;;;;;;;;;;;;;;;;;;5033396;28;20374;-77
2021/10/12 10:31:52;;;;;;;;;;;;;;;;;;5033113;28;19917;-76
2021/10/12 10:34:17;;;;;;;;;;;;;;;;;;5033380;28;19909;-76
2021/10/12 10:36:43;;;;;;;;;;;;;;;;;;5029784;28;20445;-76
2021/10/12 10:39:08;;;;;;;;;;;;;;;;;;5028362;28;19949;-76
